sensor_id;sensor_type;location;lat;lon;timestamp;P1;durP1;ratioP1;P2;durP2;ratioP2
75059;SDS011;63640;59.264;18.116;2023-09-07T00:00:39;6.07;;;1.50;;
75059;SDS011;63640;59.264;18.116;2023-09-07T00:03:04;4.90;;;1.45;;
75059;SDS011;63640;59.264;18.116;2023-09-07T00:05:30;5.30;;;1.30;;
75059;SDS011;63640;59.264;18.116;2023-09-07T00:07:56;5.22;;;1.30;;
75059;SDS011;63640;59.264;18.116;2023-09-07T00:10:21;6.50;;;1.35;;
75059;SDS011;63640;59.264;18.116;2023-09-07T00:12:47;4.40;;;1.40;;
75059;SDS011;63640;59.264;18.116;2023-09-07T00:15:13;4.60;;;1.30;;
75059;SDS011;63640;59.264;18.116;2023-09-07T00:17:38;4.72;;;1.58;;
75059;SDS011;63640;59.264;18.116;2023-09-07T00:20:04;4.90;;;1.30;;
75059;SDS011;63640;59.264;18.116;2023-09-07T00:22:35;4.85;;;1.25;;
75059;SDS011;63640;59.264;18.116;2023-09-07T00:25:01;6.38;;;1.80;;
75059;SDS011;63640;59.264;18.116;2023-09-07T00:27:26;4.38;;;1.23;;
75059;SDS011;63640;59.264;18.116;2023-09-07T00:29:52;5.47;;;1.38;;
75059;SDS011;63640;59.264;18.116;2023-09-07T00:32:17;5.03;;;1.52;;
75059;SDS011;63640;59.264;18.116;2023-09-07T00:34:43;3.90;;;1.27;;
75059;SDS011;63640;59.264;18.116;2023-09-07T00:37:08;3.90;;;1.33;;
75059;SDS011;63640;59.264;18.116;2023-09-07T00:39:34;3.88;;;1.27;;
75059;SDS011;63640;59.264;18.116;2023-09-07T00:41:59;4.28;;;1.27;;
75059;SDS011;63640;59.264;18.116;2023-09-07T00:44:25;5.13;;;1.58;;
75059;SDS011;63640;59.264;18.116;2023-09-07T00:46:50;4.15;;;1.40;;
75059;SDS011;63640;59.264;18.116;2023-09-07T00:49:16;5.05;;;1.40;;
75059;SDS011;63640;59.264;18.116;2023-09-07T00:51:41;4.40;;;1.35;;
75059;SDS011;63640;59.264;18.116;2023-09-07T00:54:07;6.38;;;1.38;;
75059;SDS011;63640;59.264;18.116;2023-09-07T00:56:33;3.67;;;1.17;;
75059;SDS011;63640;59.264;18.116;2023-09-07T00:58:58;3.65;;;1.08;;
75059;SDS011;63640;59.264;18.116;2023-09-07T01:01:25;3.95;;;1.20;;
75059;SDS011;63640;59.264;18.116;2023-09-07T01:03:51;3.92;;;1.40;;
75059;SDS011;63640;59.264;18.116;2023-09-07T01:06:27;5.85;;;1.63;;
75059;SDS011;63640;59.264;18.116;2023-09-07T01:08:55;4.90;;;1.30;;
75059;SDS011;63640;59.264;18.116;2023-09-07T01:11:23;5.20;;;1.20;;
75059;SDS011;63640;59.264;18.116;2023-09-07T01:13:49;4.10;;;1.30;;
75059;SDS011;63640;59.264;18.116;2023-09-07T01:16:17;4.20;;;1.40;;
75059;SDS011;63640;59.264;18.116;2023-09-07T01:18:43;4.03;;;1.30;;
75059;SDS011;63640;59.264;18.116;2023-09-07T01:21:08;3.60;;;1.30;;
75059;SDS011;63640;59.264;18.116;2023-09-07T01:23:35;3.72;;;1.50;;
75059;SDS011;63640;59.264;18.116;2023-09-07T01:26:02;4.95;;;1.55;;
75059;SDS011;63640;59.264;18.116;2023-09-07T01:28:28;4.95;;;1.58;;
75059;SDS011;63640;59.264;18.116;2023-09-07T01:30:54;3.47;;;1.17;;
75059;SDS011;63640;59.264;18.116;2023-09-07T01:33:19;5.25;;;1.48;;
75059;SDS011;63640;59.264;18.116;2023-09-07T01:35:45;4.53;;;1.25;;
75059;SDS011;63640;59.264;18.116;2023-09-07T01:38:10;5.60;;;1.48;;
75059;SDS011;63640;59.264;18.116;2023-09-07T01:40:36;7.68;;;1.50;;
75059;SDS011;63640;59.264;18.116;2023-09-07T01:43:01;4.20;;;1.48;;
75059;SDS011;63640;59.264;18.116;2023-09-07T01:45:27;4.82;;;1.30;;
75059;SDS011;63640;59.264;18.116;2023-09-07T01:47:52;5.10;;;1.38;;
75059;SDS011;63640;59.264;18.116;2023-09-07T01:50:18;4.57;;;1.42;;
75059;SDS011;63640;59.264;18.116;2023-09-07T01:52:45;6.43;;;1.40;;
75059;SDS011;63640;59.264;18.116;2023-09-07T01:55:16;4.05;;;1.20;;
75059;SDS011;63640;59.264;18.116;2023-09-07T01:57:42;3.38;;;1.25;;
75059;SDS011;63640;59.264;18.116;2023-09-07T02:00:09;5.25;;;1.23;;
75059;SDS011;63640;59.264;18.116;2023-09-07T02:02:35;4.13;;;1.77;;
75059;SDS011;63640;59.264;18.116;2023-09-07T02:05:01;5.40;;;1.40;;
75059;SDS011;63640;59.264;18.116;2023-09-07T02:07:26;3.42;;;1.20;;
75059;SDS011;63640;59.264;18.116;2023-09-07T02:09:52;3.85;;;1.48;;
75059;SDS011;63640;59.264;18.116;2023-09-07T02:12:18;5.85;;;1.30;;
75059;SDS011;63640;59.264;18.116;2023-09-07T02:14:43;4.15;;;1.50;;
75059;SDS011;63640;59.264;18.116;2023-09-07T02:17:09;4.97;;;1.55;;
75059;SDS011;63640;59.264;18.116;2023-09-07T02:19:34;4.60;;;1.40;;
75059;SDS011;63640;59.264;18.116;2023-09-07T02:22:00;5.57;;;1.23;;
75059;SDS011;63640;59.264;18.116;2023-09-07T02:24:26;5.93;;;1.50;;
75059;SDS011;63640;59.264;18.116;2023-09-07T02:26:51;3.58;;;1.13;;
75059;SDS011;63640;59.264;18.116;2023-09-07T02:29:17;5.28;;;1.38;;
75059;SDS011;63640;59.264;18.116;2023-09-07T02:31:42;3.90;;;1.00;;
75059;SDS011;63640;59.264;18.116;2023-09-07T02:34:08;4.10;;;1.30;;
75059;SDS011;63640;59.264;18.116;2023-09-07T02:36:34;3.67;;;1.52;;
75059;SDS011;63640;59.264;18.116;2023-09-07T02:39:00;3.85;;;1.30;;
75059;SDS011;63640;59.264;18.116;2023-09-07T02:41:26;5.97;;;1.48;;
75059;SDS011;63640;59.264;18.116;2023-09-07T02:43:52;4.65;;;1.30;;
75059;SDS011;63640;59.264;18.116;2023-09-07T02:46:17;4.55;;;1.27;;
75059;SDS011;63640;59.264;18.116;2023-09-07T02:48:43;3.35;;;1.00;;
75059;SDS011;63640;59.264;18.116;2023-09-07T02:51:08;4.78;;;1.50;;
75059;SDS011;63640;59.264;18.116;2023-09-07T02:53:34;3.40;;;1.05;;
75059;SDS011;63640;59.264;18.116;2023-09-07T02:55:59;3.38;;;1.10;;
75059;SDS011;63640;59.264;18.116;2023-09-07T02:58:30;6.18;;;1.20;;
75059;SDS011;63640;59.264;18.116;2023-09-07T03:00:56;8.35;;;1.48;;
75059;SDS011;63640;59.264;18.116;2023-09-07T03:03:21;3.95;;;1.25;;
75059;SDS011;63640;59.264;18.116;2023-09-07T03:05:47;4.13;;;1.20;;
75059;SDS011;63640;59.264;18.116;2023-09-07T03:08:12;5.35;;;1.15;;
75059;SDS011;63640;59.264;18.116;2023-09-07T03:10:38;5.53;;;1.30;;
75059;SDS011;63640;59.264;18.116;2023-09-07T03:13:05;3.28;;;1.13;;
75059;SDS011;63640;59.264;18.116;2023-09-07T03:15:31;4.82;;;1.20;;
75059;SDS011;63640;59.264;18.116;2023-09-07T03:17:57;5.45;;;1.50;;
75059;SDS011;63640;59.264;18.116;2023-09-07T03:20:22;4.60;;;1.20;;
75059;SDS011;63640;59.264;18.116;2023-09-07T03:22:48;5.55;;;1.45;;
75059;SDS011;63640;59.264;18.116;2023-09-07T03:25:13;4.75;;;1.40;;
75059;SDS011;63640;59.264;18.116;2023-09-07T03:27:39;4.60;;;1.40;;
75059;SDS011;63640;59.264;18.116;2023-09-07T03:30:06;4.13;;;1.45;;
75059;SDS011;63640;59.264;18.116;2023-09-07T03:32:33;5.70;;;1.88;;
75059;SDS011;63640;59.264;18.116;2023-09-07T03:34:59;5.28;;;1.33;;
75059;SDS011;63640;59.264;18.116;2023-09-07T03:37:26;8.88;;;2.15;;
75059;SDS011;63640;59.264;18.116;2023-09-07T03:39:52;7.30;;;2.15;;
75059;SDS011;63640;59.264;18.116;2023-09-07T03:42:18;7.93;;;1.92;;
75059;SDS011;63640;59.264;18.116;2023-09-07T03:44:43;7.15;;;1.70;;
75059;SDS011;63640;59.264;18.116;2023-09-07T03:47:09;7.82;;;2.17;;
75059;SDS011;63640;59.264;18.116;2023-09-07T03:49:35;10.48;;;2.35;;
75059;SDS011;63640;59.264;18.116;2023-09-07T03:52:00;8.80;;;2.42;;
75059;SDS011;63640;59.264;18.116;2023-09-07T03:54:26;7.13;;;1.73;;
75059;SDS011;63640;59.264;18.116;2023-09-07T03:56:51;6.50;;;1.52;;
75059;SDS011;63640;59.264;18.116;2023-09-07T03:59:18;10.02;;;2.63;;
75059;SDS011;63640;59.264;18.116;2023-09-07T04:01:44;8.60;;;2.17;;
75059;SDS011;63640;59.264;18.116;2023-09-07T04:04:09;6.72;;;2.13;;
75059;SDS011;63640;59.264;18.116;2023-09-07T04:06:35;7.47;;;2.00;;
75059;SDS011;63640;59.264;18.116;2023-09-07T04:09:00;5.72;;;1.63;;
75059;SDS011;63640;59.264;18.116;2023-09-07T04:11:26;5.93;;;2.15;;
75059;SDS011;63640;59.264;18.116;2023-09-07T04:13:51;6.05;;;1.90;;
75059;SDS011;63640;59.264;18.116;2023-09-07T04:16:17;7.35;;;2.55;;
75059;SDS011;63640;59.264;18.116;2023-09-07T04:18:42;6.75;;;2.10;;
75059;SDS011;63640;59.264;18.116;2023-09-07T04:21:09;6.35;;;2.10;;
75059;SDS011;63640;59.264;18.116;2023-09-07T04:23:35;7.40;;;2.47;;
75059;SDS011;63640;59.264;18.116;2023-09-07T04:26:11;6.88;;;1.98;;
75059;SDS011;63640;59.264;18.116;2023-09-07T04:28:37;9.05;;;2.10;;
75059;SDS011;63640;59.264;18.116;2023-09-07T04:31:03;7.93;;;1.83;;
75059;SDS011;63640;59.264;18.116;2023-09-07T04:33:30;7.72;;;2.10;;
75059;SDS011;63640;59.264;18.116;2023-09-07T04:35:56;4.82;;;1.85;;
75059;SDS011;63640;59.264;18.116;2023-09-07T04:38:23;4.50;;;1.75;;
75059;SDS011;63640;59.264;18.116;2023-09-07T04:40:48;6.07;;;2.20;;
75059;SDS011;63640;59.264;18.116;2023-09-07T04:43:14;7.32;;;1.80;;
75059;SDS011;63640;59.264;18.116;2023-09-07T04:45:46;6.45;;;2.22;;
75059;SDS011;63640;59.264;18.116;2023-09-07T04:48:12;7.07;;;1.92;;
75059;SDS011;63640;59.264;18.116;2023-09-07T04:50:37;5.38;;;1.90;;
75059;SDS011;63640;59.264;18.116;2023-09-07T04:53:03;5.68;;;1.80;;
75059;SDS011;63640;59.264;18.116;2023-09-07T04:55:28;7.20;;;2.10;;
75059;SDS011;63640;59.264;18.116;2023-09-07T04:57:54;6.68;;;1.98;;
75059;SDS011;63640;59.264;18.116;2023-09-07T05:00:19;5.20;;;1.83;;
75059;SDS011;63640;59.264;18.116;2023-09-07T05:02:45;6.65;;;1.67;;
75059;SDS011;63640;59.264;18.116;2023-09-07T05:05:12;10.85;;;2.40;;
75059;SDS011;63640;59.264;18.116;2023-09-07T05:07:37;11.77;;;2.30;;
75059;SDS011;63640;59.264;18.116;2023-09-07T05:10:03;6.70;;;2.25;;
75059;SDS011;63640;59.264;18.116;2023-09-07T05:12:28;9.55;;;2.45;;
75059;SDS011;63640;59.264;18.116;2023-09-07T05:14:54;10.35;;;3.17;;
75059;SDS011;63640;59.264;18.116;2023-09-07T05:17:20;11.48;;;3.35;;
75059;SDS011;63640;59.264;18.116;2023-09-07T05:19:45;15.43;;;4.50;;
75059;SDS011;63640;59.264;18.116;2023-09-07T05:22:11;14.35;;;4.45;;
75059;SDS011;63640;59.264;18.116;2023-09-07T05:24:39;12.60;;;4.47;;
75059;SDS011;63640;59.264;18.116;2023-09-07T05:27:05;12.13;;;4.07;;
75059;SDS011;63640;59.264;18.116;2023-09-07T05:29:31;9.65;;;3.50;;
75059;SDS011;63640;59.264;18.116;2023-09-07T05:31:56;14.05;;;4.03;;
75059;SDS011;63640;59.264;18.116;2023-09-07T05:34:22;9.35;;;3.28;;
75059;SDS011;63640;59.264;18.116;2023-09-07T05:36:48;9.15;;;3.70;;
75059;SDS011;63640;59.264;18.116;2023-09-07T05:39:13;8.80;;;3.33;;
75059;SDS011;63640;59.264;18.116;2023-09-07T05:41:39;10.32;;;3.20;;
75059;SDS011;63640;59.264;18.116;2023-09-07T05:44:04;9.32;;;3.40;;
75059;SDS011;63640;59.264;18.116;2023-09-07T05:46:30;9.60;;;3.38;;
75059;SDS011;63640;59.264;18.116;2023-09-07T05:48:55;7.50;;;3.05;;
75059;SDS011;63640;59.264;18.116;2023-09-07T05:51:21;9.90;;;2.83;;
75059;SDS011;63640;59.264;18.116;2023-09-07T05:53:46;7.93;;;2.88;;
75059;SDS011;63640;59.264;18.116;2023-09-07T05:56:12;7.85;;;2.35;;
75059;SDS011;63640;59.264;18.116;2023-09-07T05:58:37;6.05;;;2.47;;
75059;SDS011;63640;59.264;18.116;2023-09-07T06:01:03;6.40;;;2.08;;
75059;SDS011;63640;59.264;18.116;2023-09-07T06:03:30;4.35;;;1.85;;
75059;SDS011;63640;59.264;18.116;2023-09-07T06:05:57;5.25;;;1.75;;
75059;SDS011;63640;59.264;18.116;2023-09-07T06:08:22;4.60;;;1.55;;
75059;SDS011;63640;59.264;18.116;2023-09-07T06:10:48;3.85;;;1.45;;
75059;SDS011;63640;59.264;18.116;2023-09-07T06:13:14;3.70;;;1.30;;
75059;SDS011;63640;59.264;18.116;2023-09-07T06:15:40;3.85;;;1.15;;
75059;SDS011;63640;59.264;18.116;2023-09-07T06:18:05;6.43;;;1.38;;
75059;SDS011;63640;59.264;18.116;2023-09-07T06:20:31;5.30;;;1.27;;
75059;SDS011;63640;59.264;18.116;2023-09-07T06:22:56;2.70;;;1.10;;
75059;SDS011;63640;59.264;18.116;2023-09-07T06:25:22;5.47;;;1.23;;
75059;SDS011;63640;59.264;18.116;2023-09-07T06:27:47;4.70;;;1.15;;
75059;SDS011;63640;59.264;18.116;2023-09-07T06:30:13;4.10;;;1.10;;
75059;SDS011;63640;59.264;18.116;2023-09-07T06:32:38;3.47;;;1.00;;
75059;SDS011;63640;59.264;18.116;2023-09-07T06:35:05;4.95;;;1.27;;
75059;SDS011;63640;59.264;18.116;2023-09-07T06:37:31;5.97;;;1.08;;
75059;SDS011;63640;59.264;18.116;2023-09-07T06:39:56;6.05;;;1.75;;
75059;SDS011;63640;59.264;18.116;2023-09-07T06:42:22;5.90;;;1.27;;
75059;SDS011;63640;59.264;18.116;2023-09-07T06:44:47;6.10;;;1.20;;
75059;SDS011;63640;59.264;18.116;2023-09-07T06:47:13;5.43;;;1.10;;
75059;SDS011;63640;59.264;18.116;2023-09-07T06:49:38;4.97;;;1.02;;
75059;SDS011;63640;59.264;18.116;2023-09-07T06:52:04;4.65;;;1.10;;
75059;SDS011;63640;59.264;18.116;2023-09-07T06:54:29;4.78;;;1.17;;
75059;SDS011;63640;59.264;18.116;2023-09-07T06:56:55;4.13;;;1.15;;
75059;SDS011;63640;59.264;18.116;2023-09-07T06:59:20;8.15;;;1.40;;
75059;SDS011;63640;59.264;18.116;2023-09-07T07:01:46;4.13;;;1.30;;
75059;SDS011;63640;59.264;18.116;2023-09-07T07:04:11;4.82;;;1.20;;
75059;SDS011;63640;59.264;18.116;2023-09-07T07:06:37;4.18;;;1.08;;
75059;SDS011;63640;59.264;18.116;2023-09-07T07:09:02;5.03;;;1.20;;
75059;SDS011;63640;59.264;18.116;2023-09-07T07:11:28;5.22;;;1.55;;
75059;SDS011;63640;59.264;18.116;2023-09-07T07:13:53;4.65;;;1.38;;
75059;SDS011;63640;59.264;18.116;2023-09-07T07:16:19;4.72;;;1.38;;
75059;SDS011;63640;59.264;18.116;2023-09-07T07:18:44;4.45;;;1.30;;
75059;SDS011;63640;59.264;18.116;2023-09-07T07:21:10;3.78;;;1.15;;
75059;SDS011;63640;59.264;18.116;2023-09-07T07:23:35;4.82;;;1.45;;
75059;SDS011;63640;59.264;18.116;2023-09-07T07:26:01;4.90;;;1.10;;
75059;SDS011;63640;59.264;18.116;2023-09-07T07:28:27;7.22;;;1.48;;
75059;SDS011;63640;59.264;18.116;2023-09-07T07:30:52;4.43;;;1.55;;
75059;SDS011;63640;59.264;18.116;2023-09-07T07:33:19;4.18;;;1.30;;
75059;SDS011;63640;59.264;18.116;2023-09-07T07:35:45;6.45;;;1.40;;
75059;SDS011;63640;59.264;18.116;2023-09-07T07:38:11;6.03;;;1.45;;
75059;SDS011;63640;59.264;18.116;2023-09-07T07:40:38;6.35;;;1.33;;
75059;SDS011;63640;59.264;18.116;2023-09-07T07:43:04;5.20;;;1.58;;
75059;SDS011;63640;59.264;18.116;2023-09-07T07:45:31;4.30;;;1.50;;
75059;SDS011;63640;59.264;18.116;2023-09-07T07:50:27;5.35;;;1.52;;
75059;SDS011;63640;59.264;18.116;2023-09-07T07:52:52;4.18;;;1.35;;
75059;SDS011;63640;59.264;18.116;2023-09-07T07:55:18;4.07;;;1.50;;
75059;SDS011;63640;59.264;18.116;2023-09-07T07:57:43;5.10;;;1.65;;
75059;SDS011;63640;59.264;18.116;2023-09-07T08:00:09;6.15;;;1.58;;
75059;SDS011;63640;59.264;18.116;2023-09-07T08:02:34;6.20;;;1.60;;
75059;SDS011;63640;59.264;18.116;2023-09-07T08:05:00;4.35;;;1.30;;
75059;SDS011;63640;59.264;18.116;2023-09-07T08:07:25;5.82;;;1.52;;
75059;SDS011;63640;59.264;18.116;2023-09-07T08:09:52;4.65;;;1.30;;
75059;SDS011;63640;59.264;18.116;2023-09-07T08:12:18;4.88;;;1.67;;
75059;SDS011;63640;59.264;18.116;2023-09-07T08:14:43;4.03;;;1.48;;
75059;SDS011;63640;59.264;18.116;2023-09-07T08:17:09;4.95;;;1.50;;
75059;SDS011;63640;59.264;18.116;2023-09-07T08:19:34;3.65;;;1.27;;
75059;SDS011;63640;59.264;18.116;2023-09-07T08:22:00;4.72;;;1.38;;
75059;SDS011;63640;59.264;18.116;2023-09-07T08:24:28;3.97;;;1.35;;
75059;SDS011;63640;59.264;18.116;2023-09-07T08:26:54;4.28;;;1.50;;
75059;SDS011;63640;59.264;18.116;2023-09-07T08:29:22;4.93;;;1.98;;
75059;SDS011;63640;59.264;18.116;2023-09-07T08:31:51;4.10;;;1.30;;
75059;SDS011;63640;59.264;18.116;2023-09-07T08:34:17;5.22;;;1.45;;
75059;SDS011;63640;59.264;18.116;2023-09-07T08:36:46;6.35;;;1.58;;
75059;SDS011;63640;59.264;18.116;2023-09-07T08:39:12;6.00;;;1.30;;
75059;SDS011;63640;59.264;18.116;2023-09-07T08:41:38;4.82;;;1.60;;
75059;SDS011;63640;59.264;18.116;2023-09-07T08:44:09;4.40;;;1.70;;
75059;SDS011;63640;59.264;18.116;2023-09-07T08:46:35;4.00;;;1.30;;
75059;SDS011;63640;59.264;18.116;2023-09-07T08:49:02;4.53;;;1.50;;
75059;SDS011;63640;59.264;18.116;2023-09-07T08:51:29;6.43;;;1.63;;
75059;SDS011;63640;59.264;18.116;2023-09-07T08:53:54;5.20;;;1.70;;
75059;SDS011;63640;59.264;18.116;2023-09-07T08:56:21;4.90;;;1.40;;
75059;SDS011;63640;59.264;18.116;2023-09-07T08:58:47;5.85;;;1.85;;
75059;SDS011;63640;59.264;18.116;2023-09-07T09:01:16;6.25;;;1.50;;
75059;SDS011;63640;59.264;18.116;2023-09-07T09:03:42;4.25;;;1.50;;
75059;SDS011;63640;59.264;18.116;2023-09-07T09:06:08;4.43;;;1.50;;
75059;SDS011;63640;59.264;18.116;2023-09-07T09:11:09;8.93;;;1.50;;
75059;SDS011;63640;59.264;18.116;2023-09-07T09:13:36;4.75;;;1.50;;
75059;SDS011;63640;59.264;18.116;2023-09-07T09:16:02;5.35;;;1.42;;
75059;SDS011;63640;59.264;18.116;2023-09-07T09:18:27;5.13;;;1.23;;
75059;SDS011;63640;59.264;18.116;2023-09-07T09:20:57;4.95;;;1.70;;
75059;SDS011;63640;59.264;18.116;2023-09-07T09:23:36;4.53;;;1.50;;
75059;SDS011;63640;59.264;18.116;2023-09-07T09:26:03;6.15;;;1.80;;
75059;SDS011;63640;59.264;18.116;2023-09-07T09:28:30;4.43;;;1.35;;
75059;SDS011;63640;59.264;18.116;2023-09-07T09:30:57;5.15;;;1.70;;
75059;SDS011;63640;59.264;18.116;2023-09-07T09:33:23;5.75;;;1.52;;
75059;SDS011;63640;59.264;18.116;2023-09-07T09:35:49;5.03;;;1.45;;
75059;SDS011;63640;59.264;18.116;2023-09-07T09:38:15;4.97;;;1.45;;
75059;SDS011;63640;59.264;18.116;2023-09-07T09:40:42;5.07;;;1.50;;
75059;SDS011;63640;59.264;18.116;2023-09-07T09:43:08;4.55;;;1.50;;
75059;SDS011;63640;59.264;18.116;2023-09-07T09:45:34;4.85;;;1.40;;
75059;SDS011;63640;59.264;18.116;2023-09-07T09:48:00;4.93;;;1.77;;
75059;SDS011;63640;59.264;18.116;2023-09-07T09:50:26;4.35;;;1.60;;
75059;SDS011;63640;59.264;18.116;2023-09-07T09:52:53;4.60;;;1.50;;
75059;SDS011;63640;59.264;18.116;2023-09-07T09:55:19;5.85;;;1.40;;
75059;SDS011;63640;59.264;18.116;2023-09-07T09:57:44;9.48;;;1.60;;
75059;SDS011;63640;59.264;18.116;2023-09-07T10:00:10;4.47;;;2.00;;
75059;SDS011;63640;59.264;18.116;2023-09-07T10:03:07;6.97;;;1.48;;
75059;SDS011;63640;59.264;18.116;2023-09-07T10:06:07;4.68;;;1.42;;
75059;SDS011;63640;59.264;18.116;2023-09-07T10:08:33;5.40;;;1.40;;
75059;SDS011;63640;59.264;18.116;2023-09-07T10:10:59;4.82;;;1.60;;
75059;SDS011;63640;59.264;18.116;2023-09-07T10:13:30;6.82;;;1.60;;
75059;SDS011;63640;59.264;18.116;2023-09-07T10:16:00;4.20;;;1.40;;
75059;SDS011;63640;59.264;18.116;2023-09-07T10:18:33;5.10;;;1.63;;
75059;SDS011;63640;59.264;18.116;2023-09-07T10:20:59;4.70;;;1.40;;
75059;SDS011;63640;59.264;18.116;2023-09-07T10:23:37;6.47;;;1.88;;
75059;SDS011;63640;59.264;18.116;2023-09-07T10:26:04;4.57;;;1.30;;
75059;SDS011;63640;59.264;18.116;2023-09-07T10:28:31;4.90;;;1.55;;
75059;SDS011;63640;59.264;18.116;2023-09-07T10:33:28;4.72;;;1.30;;
75059;SDS011;63640;59.264;18.116;2023-09-07T10:35:54;5.13;;;1.60;;
75059;SDS011;63640;59.264;18.116;2023-09-07T10:38:22;5.72;;;1.42;;
75059;SDS011;63640;59.264;18.116;2023-09-07T10:40:47;4.85;;;1.50;;
75059;SDS011;63640;59.264;18.116;2023-09-07T10:43:13;7.45;;;1.45;;
75059;SDS011;63640;59.264;18.116;2023-09-07T10:45:39;6.30;;;1.90;;
75059;SDS011;63640;59.264;18.116;2023-09-07T10:48:09;6.50;;;1.60;;
75059;SDS011;63640;59.264;18.116;2023-09-07T10:50:43;5.20;;;1.60;;
75059;SDS011;63640;59.264;18.116;2023-09-07T10:53:12;4.95;;;1.50;;
75059;SDS011;63640;59.264;18.116;2023-09-07T10:55:39;4.53;;;1.50;;
75059;SDS011;63640;59.264;18.116;2023-09-07T10:58:05;5.40;;;1.30;;
75059;SDS011;63640;59.264;18.116;2023-09-07T11:00:31;4.95;;;1.42;;
75059;SDS011;63640;59.264;18.116;2023-09-07T11:02:57;5.22;;;1.45;;
75059;SDS011;63640;59.264;18.116;2023-09-07T11:05:22;5.35;;;1.60;;
75059;SDS011;63640;59.264;18.116;2023-09-07T11:07:48;6.03;;;1.70;;
75059;SDS011;63640;59.264;18.116;2023-09-07T11:10:13;4.85;;;1.50;;
75059;SDS011;63640;59.264;18.116;2023-09-07T11:12:39;3.50;;;1.30;;
75059;SDS011;63640;59.264;18.116;2023-09-07T11:15:08;5.85;;;1.60;;
75059;SDS011;63640;59.264;18.116;2023-09-07T11:17:36;5.15;;;1.58;;
75059;SDS011;63640;59.264;18.116;2023-09-07T11:20:03;4.05;;;1.38;;
75059;SDS011;63640;59.264;18.116;2023-09-07T11:22:32;5.35;;;1.40;;
75059;SDS011;63640;59.264;18.116;2023-09-07T11:25:01;5.10;;;1.35;;
75059;SDS011;63640;59.264;18.116;2023-09-07T11:27:29;6.72;;;1.40;;
75059;SDS011;63640;59.264;18.116;2023-09-07T11:29:55;4.15;;;1.02;;
75059;SDS011;63640;59.264;18.116;2023-09-07T11:32:22;4.25;;;1.35;;
75059;SDS011;63640;59.264;18.116;2023-09-07T11:34:49;5.22;;;1.30;;
75059;SDS011;63640;59.264;18.116;2023-09-07T11:37:15;4.60;;;1.50;;
75059;SDS011;63640;59.264;18.116;2023-09-07T11:39:41;5.55;;;1.17;;
75059;SDS011;63640;59.264;18.116;2023-09-07T11:42:06;4.90;;;1.02;;
75059;SDS011;63640;59.264;18.116;2023-09-07T11:44:32;4.82;;;1.27;;
75059;SDS011;63640;59.264;18.116;2023-09-07T11:46:57;5.20;;;1.27;;
75059;SDS011;63640;59.264;18.116;2023-09-07T11:49:23;5.43;;;1.02;;
75059;SDS011;63640;59.264;18.116;2023-09-07T11:51:49;4.00;;;1.00;;
75059;SDS011;63640;59.264;18.116;2023-09-07T11:54:15;5.82;;;1.40;;
75059;SDS011;63640;59.264;18.116;2023-09-07T11:56:40;3.28;;;1.20;;
75059;SDS011;63640;59.264;18.116;2023-09-07T11:59:08;7.05;;;1.30;;
75059;SDS011;63640;59.264;18.116;2023-09-07T12:01:34;3.85;;;1.08;;
75059;SDS011;63640;59.264;18.116;2023-09-07T12:04:00;3.38;;;0.82;;
75059;SDS011;63640;59.264;18.116;2023-09-07T12:06:25;4.65;;;1.20;;
75059;SDS011;63640;59.264;18.116;2023-09-07T12:09:01;3.13;;;1.08;;
75059;SDS011;63640;59.264;18.116;2023-09-07T12:11:32;6.10;;;1.25;;
75059;SDS011;63640;59.264;18.116;2023-09-07T12:13:57;4.90;;;1.38;;
75059;SDS011;63640;59.264;18.116;2023-09-07T12:16:24;6.30;;;1.20;;
75059;SDS011;63640;59.264;18.116;2023-09-07T12:18:50;3.83;;;1.00;;
75059;SDS011;63640;59.264;18.116;2023-09-07T12:21:16;3.97;;;1.15;;
75059;SDS011;63640;59.264;18.116;2023-09-07T12:23:41;5.28;;;1.13;;
75059;SDS011;63640;59.264;18.116;2023-09-07T12:26:07;4.40;;;1.13;;
75059;SDS011;63640;59.264;18.116;2023-09-07T12:28:33;5.82;;;1.38;;
75059;SDS011;63640;59.264;18.116;2023-09-07T12:30:59;4.25;;;1.10;;
75059;SDS011;63640;59.264;18.116;2023-09-07T12:33:24;6.13;;;1.40;;
75059;SDS011;63640;59.264;18.116;2023-09-07T12:35:50;5.38;;;1.30;;
75059;SDS011;63640;59.264;18.116;2023-09-07T12:38:16;4.40;;;1.23;;
75059;SDS011;63640;59.264;18.116;2023-09-07T12:40:43;3.45;;;1.10;;
75059;SDS011;63640;59.264;18.116;2023-09-07T12:43:09;5.63;;;0.95;;
75059;SDS011;63640;59.264;18.116;2023-09-07T12:45:35;7.75;;;1.42;;
75059;SDS011;63640;59.264;18.116;2023-09-07T12:48:00;3.95;;;1.30;;
75059;SDS011;63640;59.264;18.116;2023-09-07T12:50:26;3.88;;;1.15;;
75059;SDS011;63640;59.264;18.116;2023-09-07T12:52:52;3.97;;;1.02;;
75059;SDS011;63640;59.264;18.116;2023-09-07T12:55:19;5.78;;;1.40;;
75059;SDS011;63640;59.264;18.116;2023-09-07T12:57:45;4.93;;;1.13;;
75059;SDS011;63640;59.264;18.116;2023-09-07T13:00:10;4.35;;;1.20;;
75059;SDS011;63640;59.264;18.116;2023-09-07T13:02:36;4.65;;;1.20;;
75059;SDS011;63640;59.264;18.116;2023-09-07T13:05:02;4.40;;;1.02;;
75059;SDS011;63640;59.264;18.116;2023-09-07T13:07:31;3.88;;;1.10;;
75059;SDS011;63640;59.264;18.116;2023-09-07T13:10:03;4.68;;;1.00;;
75059;SDS011;63640;59.264;18.116;2023-09-07T13:12:30;5.63;;;1.20;;
75059;SDS011;63640;59.264;18.116;2023-09-07T13:14:56;4.57;;;1.20;;
75059;SDS011;63640;59.264;18.116;2023-09-07T13:17:22;5.13;;;1.10;;
75059;SDS011;63640;59.264;18.116;2023-09-07T13:19:47;4.70;;;1.08;;
75059;SDS011;63640;59.264;18.116;2023-09-07T13:22:13;3.47;;;1.05;;
75059;SDS011;63640;59.264;18.116;2023-09-07T13:24:39;4.05;;;1.10;;
75059;SDS011;63640;59.264;18.116;2023-09-07T13:27:04;6.65;;;1.15;;
75059;SDS011;63640;59.264;18.116;2023-09-07T13:29:31;6.22;;;1.40;;
75059;SDS011;63640;59.264;18.116;2023-09-07T13:31:57;5.18;;;1.70;;
75059;SDS011;63640;59.264;18.116;2023-09-07T13:34:23;6.30;;;1.30;;
75059;SDS011;63640;59.264;18.116;2023-09-07T13:36:49;5.15;;;1.35;;
75059;SDS011;63640;59.264;18.116;2023-09-07T13:39:15;4.47;;;1.20;;
75059;SDS011;63640;59.264;18.116;2023-09-07T13:41:40;5.57;;;1.23;;
75059;SDS011;63640;59.264;18.116;2023-09-07T13:44:06;5.22;;;1.08;;
75059;SDS011;63640;59.264;18.116;2023-09-07T13:46:32;6.55;;;1.20;;
75059;SDS011;63640;59.264;18.116;2023-09-07T13:48:58;3.58;;;1.10;;
75059;SDS011;63640;59.264;18.116;2023-09-07T13:51:24;6.65;;;1.98;;
75059;SDS011;63640;59.264;18.116;2023-09-07T13:53:50;5.45;;;1.10;;
75059;SDS011;63640;59.264;18.116;2023-09-07T13:56:16;6.13;;;1.23;;
75059;SDS011;63640;59.264;18.116;2023-09-07T13:58:43;6.65;;;1.33;;
75059;SDS011;63640;59.264;18.116;2023-09-07T14:01:08;3.67;;;1.17;;
75059;SDS011;63640;59.264;18.116;2023-09-07T14:03:34;5.68;;;1.27;;
75059;SDS011;63640;59.264;18.116;2023-09-07T14:05:59;6.43;;;1.50;;
75059;SDS011;63640;59.264;18.116;2023-09-07T14:08:25;4.70;;;1.23;;
75059;SDS011;63640;59.264;18.116;2023-09-07T14:10:50;4.30;;;1.02;;
75059;SDS011;63640;59.264;18.116;2023-09-07T14:13:17;7.63;;;1.75;;
75059;SDS011;63640;59.264;18.116;2023-09-07T14:15:43;4.65;;;1.10;;
75059;SDS011;63640;59.264;18.116;2023-09-07T14:18:10;5.35;;;1.35;;
75059;SDS011;63640;59.264;18.116;2023-09-07T14:20:35;4.65;;;1.02;;
75059;SDS011;63640;59.264;18.116;2023-09-07T14:23:01;5.55;;;1.50;;
75059;SDS011;63640;59.264;18.116;2023-09-07T14:25:27;6.47;;;1.23;;
75059;SDS011;63640;59.264;18.116;2023-09-07T14:27:52;6.82;;;1.58;;
75059;SDS011;63640;59.264;18.116;2023-09-07T14:30:18;5.28;;;1.30;;
75059;SDS011;63640;59.264;18.116;2023-09-07T14:35:18;5.00;;;1.20;;
75059;SDS011;63640;59.264;18.116;2023-09-07T14:37:44;5.45;;;1.27;;